createdAt,value
2022-11-22T00:00:03.574Z,7.85
2022-11-22T00:01:03.838Z,7.85
2022-11-22T00:02:03.710Z,7.82
2022-11-22T00:03:22.446Z,7.82
2022-11-22T00:04:03.715Z,7.80
2022-11-22T00:05:02.701Z,7.79
2022-11-22T00:06:03.782Z,7.79
2022-11-22T00:07:03.144Z,7.77
2022-11-22T00:08:02.196Z,7.75
2022-11-22T00:09:03.764Z,7.72
2022-11-22T00:10:03.047Z,7.69
2022-11-22T00:11:03.046Z,7.69
2022-11-22T00:12:03.726Z,7.69
2022-11-22T00:13:22.036Z,7.68
2022-11-22T00:14:03.770Z,7.68
2022-11-22T00:15:02.785Z,7.63
2022-11-22T00:16:02.550Z,7.61
2022-11-22T00:17:02.553Z,7.60
2022-11-22T00:18:03.466Z,7.60
2022-11-22T00:19:03.253Z,7.58
2022-11-22T00:20:03.572Z,7.55
2022-11-22T00:21:03.340Z,7.55
2022-11-22T00:22:02.560Z,7.52
2022-11-22T00:23:21.968Z,7.53
2022-11-22T00:24:02.922Z,7.50
2022-11-22T00:25:03.490Z,7.50
2022-11-22T00:26:03.288Z,7.50
2022-11-22T00:27:03.612Z,7.49
2022-11-22T00:28:02.568Z,7.48
2022-11-22T00:29:03.274Z,7.49
2022-11-22T00:30:03.624Z,7.49
2022-11-22T00:31:03.378Z,7.50
2022-11-22T00:32:03.183Z,7.49
2022-11-22T00:33:21.993Z,7.49
2022-11-22T00:34:02.435Z,7.48
2022-11-22T00:35:03.510Z,7.48
2022-11-22T00:36:02.842Z,7.48
2022-11-22T00:37:03.090Z,7.48
2022-11-22T00:38:03.373Z,7.46
2022-11-22T00:39:01.813Z,7.45
2022-11-22T00:40:03.530Z,7.45
2022-11-22T00:41:03.331Z,7.45
2022-11-22T00:42:03.158Z,7.45
2022-11-22T00:43:21.974Z,7.46
2022-11-22T00:44:03.183Z,7.48
2022-11-22T00:45:02.562Z,7.46
2022-11-22T00:46:02.534Z,7.45
2022-11-22T00:47:03.094Z,7.45
2022-11-22T00:48:03.379Z,7.45
2022-11-22T00:49:03.208Z,7.45
2022-11-22T00:50:01.578Z,7.43
2022-11-22T00:51:02.590Z,7.42
2022-11-22T00:52:02.565Z,7.42
2022-11-22T00:53:21.878Z,7.40
2022-11-22T00:54:01.921Z,7.39
2022-11-22T00:55:03.007Z,7.40
2022-11-22T00:56:02.082Z,7.39
2022-11-22T00:57:03.085Z,7.39
2022-11-22T00:58:02.935Z,7.39
2022-11-22T00:59:02.801Z,7.37
2022-11-22T01:00:03.074Z,7.37
2022-11-22T01:01:02.947Z,7.35
2022-11-22T01:02:02.098Z,7.35
2022-11-22T01:03:21.516Z,7.34
2022-11-22T01:04:03.232Z,7.34
2022-11-22T01:05:03.005Z,7.32
2022-11-22T01:06:02.861Z,7.32
2022-11-22T01:07:03.150Z,7.31
2022-11-22T01:08:02.920Z,7.31
2022-11-22T01:09:01.842Z,7.31
2022-11-22T01:10:03.057Z,7.30
2022-11-22T01:11:02.841Z,7.28
2022-11-22T01:12:03.147Z,7.27
2022-11-22T01:13:21.465Z,7.27
2022-11-22T01:14:02.102Z,7.25
2022-11-22T01:15:02.262Z,7.24
2022-11-22T01:16:03.070Z,7.24
2022-11-22T01:17:02.848Z,7.27
2022-11-22T01:18:03.139Z,7.24
2022-11-22T01:19:02.920Z,7.24
2022-11-22T01:20:02.101Z,7.25
2022-11-22T01:21:03.010Z,7.24
2022-11-22T01:22:02.308Z,7.24
2022-11-22T01:23:21.617Z,7.24
2022-11-22T01:24:02.861Z,7.23
2022-11-22T01:25:01.835Z,7.21
2022-11-22T01:26:03.030Z,7.20
2022-11-22T01:27:02.801Z,7.20
2022-11-22T01:28:02.617Z,7.21
2022-11-22T01:29:02.946Z,7.20
2022-11-22T01:30:02.750Z,7.20
2022-11-22T01:31:02.106Z,7.20
2022-11-22T01:32:02.811Z,7.17
2022-11-22T01:33:21.102Z,7.16
2022-11-22T01:34:02.865Z,7.16
2022-11-22T01:35:01.838Z,7.16
2022-11-22T01:36:02.944Z,7.16
2022-11-22T01:37:02.691Z,7.16
2022-11-22T01:38:02.493Z,7.15
2022-11-22T01:39:02.770Z,7.16
2022-11-22T01:40:01.328Z,7.15
2022-11-22T01:41:02.913Z,7.13
2022-11-22T01:42:02.707Z,7.12
2022-11-22T01:43:21.012Z,7.10
2022-11-22T01:44:02.785Z,7.12
2022-11-22T01:45:02.075Z,7.09
2022-11-22T01:46:02.379Z,7.07
2022-11-22T01:47:01.869Z,7.09
2022-11-22T01:48:01.606Z,7.09
2022-11-22T01:49:02.726Z,7.07
2022-11-22T01:50:02.548Z,7.09
2022-11-22T01:51:02.331Z,7.07
2022-11-22T01:52:02.624Z,7.07
2022-11-22T01:53:20.933Z,7.09
2022-11-22T01:54:02.667Z,7.09
2022-11-22T01:55:01.135Z,7.10
2022-11-22T01:56:02.304Z,7.10
2022-11-22T01:57:02.597Z,7.09
2022-11-22T01:58:02.395Z,7.07
2022-11-22T01:59:01.637Z,7.09
2022-11-22T02:00:02.532Z,7.07
2022-11-22T02:01:02.372Z,7.07
2022-11-22T02:02:02.606Z,7.07
2022-11-22T02:03:20.916Z,7.09
2022-11-22T02:04:01.620Z,7.09
2022-11-22T02:05:02.430Z,7.06
2022-11-22T02:06:02.216Z,7.07
2022-11-22T02:07:02.555Z,7.07
2022-11-22T02:08:02.291Z,7.05
2022-11-22T02:09:02.554Z,7.05
2022-11-22T02:10:02.632Z,7.05
2022-11-22T02:11:01.141Z,7.03
2022-11-22T02:12:02.552Z,7.05
2022-11-22T02:13:20.865Z,7.05
2022-11-22T02:14:02.105Z,7.03
2022-11-22T02:15:02.388Z,7.03
2022-11-22T02:16:01.628Z,7.03
2022-11-22T02:17:02.518Z,7.02
2022-11-22T02:18:02.329Z,7.02
2022-11-22T02:19:02.110Z,6.98
2022-11-22T02:20:02.404Z,6.98
2022-11-22T02:21:01.645Z,6.98
2022-11-22T02:22:01.640Z,6.98
2022-11-22T02:23:20.826Z,6.98
2022-11-22T02:24:02.039Z,6.97
2022-11-22T02:25:02.340Z,6.97
2022-11-22T02:26:02.122Z,6.97
2022-11-22T02:27:01.650Z,6.95
2022-11-22T02:28:01.630Z,6.97
2022-11-22T02:29:02.056Z,6.97
2022-11-22T02:30:02.369Z,6.94
2022-11-22T02:31:01.729Z,6.95
2022-11-22T02:32:02.022Z,6.94
2022-11-22T02:33:20.846Z,6.91
2022-11-22T02:34:02.091Z,6.94
2022-11-22T02:35:01.584Z,6.91
2022-11-22T02:36:02.206Z,6.88
2022-11-22T02:37:01.954Z,6.88
2022-11-22T02:38:02.236Z,6.87
2022-11-22T02:39:01.156Z,6.87
2022-11-22T02:40:01.853Z,6.88
2022-11-22T02:41:02.136Z,6.89
2022-11-22T02:42:00.767Z,6.89
2022-11-22T02:43:20.364Z,6.87
2022-11-22T02:44:02.109Z,6.88
2022-11-22T02:45:01.224Z,6.89
2022-11-22T02:46:02.204Z,6.88
2022-11-22T02:47:02.009Z,6.88
2022-11-22T02:48:01.798Z,6.87
2022-11-22T02:49:02.229Z,6.84
2022-11-22T02:50:01.069Z,6.84
2022-11-22T02:51:01.155Z,6.85
2022-11-22T02:52:01.929Z,6.80
2022-11-22T02:53:20.763Z,6.79
2022-11-22T02:54:01.496Z,6.79
2022-11-22T02:55:01.765Z,6.79
2022-11-22T02:56:02.050Z,6.79
2022-11-22T02:57:01.155Z,6.77
2022-11-22T02:58:01.498Z,6.76
2022-11-22T02:59:02.053Z,6.77
2022-11-22T03:00:01.835Z,6.76
2022-11-22T03:01:01.679Z,6.73
2022-11-22T03:02:03.543Z,6.73
2022-11-22T03:03:20.296Z,6.73
2022-11-22T03:04:02.011Z,6.71
2022-11-22T03:05:01.806Z,6.70
2022-11-22T03:06:01.584Z,6.70
2022-11-22T03:07:01.910Z,6.69
2022-11-22T03:08:01.194Z,6.69
2022-11-22T03:09:01.175Z,6.67
2022-11-22T03:10:01.871Z,6.67
2022-11-22T03:11:01.194Z,6.64
2022-11-22T03:12:01.222Z,6.64
2022-11-22T03:13:20.373Z,6.62
2022-11-22T03:14:00.265Z,6.64
2022-11-22T03:15:01.004Z,6.62
2022-11-22T03:16:01.835Z,6.59
2022-11-22T03:17:01.677Z,6.59
2022-11-22T03:18:01.040Z,6.59
2022-11-22T03:19:01.406Z,6.59
2022-11-22T03:20:00.677Z,6.58
2022-11-22T03:21:01.009Z,6.55
2022-11-22T03:22:01.817Z,6.54
2022-11-22T03:23:20.178Z,6.54
2022-11-22T03:24:00.037Z,6.52
2022-11-22T03:25:00.680Z,6.54
2022-11-22T03:26:00.167Z,6.52
2022-11-22T03:27:00.919Z,6.54
2022-11-22T03:28:01.249Z,6.52
2022-11-22T03:29:01.558Z,6.49
2022-11-22T03:30:00.236Z,6.48
2022-11-22T03:31:00.688Z,6.48
2022-11-22T03:32:01.572Z,6.48
2022-11-22T03:33:19.972Z,6.44
2022-11-22T03:34:01.678Z,6.44
2022-11-22T03:35:01.513Z,6.44
2022-11-22T03:36:00.688Z,6.41
2022-11-22T03:37:00.680Z,6.43
2022-11-22T03:38:01.460Z,6.41
2022-11-22T03:39:01.349Z,6.40
2022-11-22T03:40:01.660Z,6.37
2022-11-22T03:41:01.491Z,6.36
2022-11-22T03:42:00.688Z,6.34
2022-11-22T03:43:20.173Z,6.33
2022-11-22T03:44:01.420Z,6.31
2022-11-22T03:45:01.211Z,6.30
2022-11-22T03:46:00.976Z,6.30
2022-11-22T03:47:01.385Z,6.28
2022-11-22T03:48:01.173Z,6.28
2022-11-22T03:49:01.502Z,6.27
2022-11-22T03:50:01.277Z,6.27
2022-11-22T03:51:01.573Z,6.25
2022-11-22T03:52:01.356Z,6.22
2022-11-22T03:53:20.186Z,6.27
2022-11-22T03:54:01.397Z,6.22
2022-11-22T03:55:01.189Z,6.27
2022-11-22T03:56:01.459Z,6.27
2022-11-22T03:57:01.348Z,6.22
2022-11-22T03:58:00.361Z,6.21
2022-11-22T03:59:00.701Z,6.21
2022-11-22T04:00:01.207Z,6.19
2022-11-22T04:01:00.934Z,6.19
2022-11-22T04:02:01.395Z,6.18
2022-11-22T04:03:19.698Z,6.15
2022-11-22T04:04:00.220Z,6.14
2022-11-22T04:05:00.203Z,6.12
2022-11-22T04:06:01.040Z,6.11
2022-11-22T04:07:01.341Z,6.11
2022-11-22T04:08:01.118Z,6.12
2022-11-22T04:09:00.997Z,6.09
2022-11-22T04:10:01.212Z,6.11
2022-11-22T04:11:00.212Z,6.09
2022-11-22T04:12:01.267Z,6.09
2022-11-22T04:13:19.591Z,6.09
2022-11-22T04:14:01.308Z,6.08
2022-11-22T04:15:01.109Z,6.08
2022-11-22T04:16:00.872Z,6.06
2022-11-22T04:16:59.840Z,6.06
2022-11-22T04:18:01.034Z,6.04
2022-11-22T04:19:00.902Z,6.06
2022-11-22T04:20:01.161Z,6.03
2022-11-22T04:21:00.178Z,6.03
2022-11-22T04:22:01.210Z,6.01
2022-11-22T04:23:19.541Z,6.00
2022-11-22T04:24:01.242Z,6.00
2022-11-22T04:25:01.043Z,6.00
2022-11-22T04:26:00.814Z,6.01
2022-11-22T04:27:01.114Z,6.03
2022-11-22T04:28:00.892Z,6.03
2022-11-22T04:29:09.812Z,6.03
2022-11-22T04:30:01.961Z,6.03
2022-11-22T04:31:00.750Z,6.00
2022-11-22T04:32:01.043Z,5.97
2022-11-22T04:33:19.355Z,5.97
2022-11-22T04:34:00.213Z,5.97
2022-11-22T04:35:00.885Z,5.97
2022-11-22T04:36:00.663Z,5.96
2022-11-22T04:37:00.954Z,5.97
2022-11-22T04:38:00.745Z,5.96
2022-11-22T04:39:01.024Z,5.91
2022-11-22T04:40:00.794Z,5.94
2022-11-22T04:41:01.099Z,5.91
2022-11-22T04:42:00.877Z,5.93
2022-11-22T04:43:19.203Z,5.91
2022-11-22T04:44:00.906Z,5.93
2022-11-22T04:45:00.702Z,5.91
2022-11-22T04:46:00.224Z,5.93
2022-11-22T04:47:00.277Z,5.89
2022-11-22T04:47:59.385Z,5.89
2022-11-22T04:49:00.907Z,5.86
2022-11-22T04:50:00.681Z,5.86
2022-11-22T04:50:59.738Z,5.85
2022-11-22T04:52:00.798Z,5.86
2022-11-22T04:53:19.268Z,5.86
2022-11-22T04:54:00.968Z,5.86
2022-11-22T04:55:00.762Z,5.82
2022-11-22T04:55:59.726Z,5.82
2022-11-22T04:57:00.848Z,5.85
2022-11-22T04:58:00.679Z,5.81
2022-11-22T04:59:00.413Z,5.83
2022-11-22T05:00:00.688Z,5.82
2022-11-22T05:01:00.525Z,5.82
2022-11-22T05:01:59.739Z,5.82
2022-11-22T05:03:19.247Z,5.83
2022-11-22T05:04:00.454Z,5.82
2022-11-22T05:05:00.746Z,5.79
2022-11-22T05:06:00.604Z,5.81
2022-11-22T05:06:59.752Z,5.78
2022-11-22T05:07:59.887Z,5.78
2022-11-22T05:09:00.461Z,5.76
2022-11-22T05:10:00.725Z,5.76
2022-11-22T05:11:00.517Z,5.78
2022-11-22T05:12:00.277Z,5.75
2022-11-22T05:13:19.120Z,5.75
2022-11-22T05:14:00.342Z,5.75
2022-11-22T05:15:00.616Z,5.74
2022-11-22T05:16:00.393Z,5.71
2022-11-22T05:17:00.690Z,5.68
2022-11-22T05:18:00.539Z,5.67
2022-11-22T05:19:00.332Z,5.65
2022-11-22T05:20:00.602Z,5.64
2022-11-22T05:20:59.619Z,5.65
2022-11-22T05:22:00.712Z,5.63
2022-11-22T05:23:19.042Z,5.61
2022-11-22T05:24:00.243Z,5.61
2022-11-22T05:24:59.759Z,5.61
2022-11-22T05:26:00.294Z,5.61
2022-11-22T05:27:00.591Z,5.63
2022-11-22T05:28:00.376Z,5.63
2022-11-22T05:29:00.155Z,5.60
2022-11-22T05:29:59.774Z,5.61
2022-11-22T05:31:00.222Z,5.60
2022-11-22T05:32:00.495Z,5.60
2022-11-22T05:33:18.827Z,5.60
2022-11-22T05:34:00.533Z,5.54
2022-11-22T05:35:00.337Z,5.54
2022-11-22T05:35:59.264Z,5.54
2022-11-22T05:36:59.756Z,5.56
2022-11-22T05:38:00.225Z,5.54
2022-11-22T05:39:00.526Z,5.56
2022-11-22T05:40:00.292Z,5.54
2022-11-22T05:41:00.085Z,5.54
2022-11-22T05:41:59.272Z,5.53
2022-11-22T05:43:18.726Z,5.53
2022-11-22T05:43:59.656Z,5.51
2022-11-22T05:44:59.718Z,5.51
2022-11-22T05:45:59.992Z,5.48
2022-11-22T05:47:00.277Z,5.48
2022-11-22T05:48:00.054Z,5.48
2022-11-22T05:48:59.004Z,5.46
2022-11-22T05:50:00.248Z,5.48
2022-11-22T05:50:58.556Z,5.45
2022-11-22T05:52:00.334Z,5.43
2022-11-22T05:53:18.668Z,5.43
2022-11-22T05:53:59.384Z,5.45
2022-11-22T05:54:59.282Z,5.46
2022-11-22T05:56:00.046Z,5.42
2022-11-22T05:57:00.367Z,5.43
2022-11-22T05:58:00.195Z,5.45
2022-11-22T05:58:59.987Z,5.45
2022-11-22T06:00:00.288Z,5.43
2022-11-22T06:00:59.287Z,5.42
2022-11-22T06:01:59.845Z,5.43
2022-11-22T06:03:18.669Z,5.42
2022-11-22T06:03:59.861Z,5.40
2022-11-22T06:04:59.672Z,5.40
2022-11-22T06:06:00.071Z,5.40
2022-11-22T06:06:59.111Z,5.40
2022-11-22T06:08:00.370Z,5.40
2022-11-22T06:08:59.496Z,5.42
2022-11-22T06:09:59.772Z,5.40
2022-11-22T06:11:00.132Z,5.38
2022-11-22T06:11:59.888Z,5.38
2022-11-22T06:13:18.722Z,5.35
2022-11-22T06:13:59.914Z,5.33
2022-11-22T06:14:59.707Z,5.36
2022-11-22T06:15:59.991Z,5.36
2022-11-22T06:16:59.789Z,5.36
2022-11-22T06:18:00.111Z,5.36
2022-11-22T06:18:59.880Z,5.33
2022-11-22T06:20:04.232Z,5.35
2022-11-22T06:21:01.113Z,5.35
2022-11-22T06:21:59.875Z,5.36
2022-11-22T06:23:18.203Z,5.35
2022-11-22T06:23:58.804Z,5.33
2022-11-22T06:24:59.082Z,5.33
2022-11-22T06:25:59.911Z,5.35
2022-11-22T06:26:59.692Z,5.31
2022-11-22T06:27:59.963Z,5.30
2022-11-22T06:28:59.034Z,5.30
2022-11-22T06:29:57.791Z,5.30
2022-11-22T06:30:59.027Z,5.27
2022-11-22T06:32:03.340Z,5.27
2022-11-22T06:33:18.372Z,5.28
2022-11-22T06:33:59.525Z,5.28
2022-11-22T06:34:58.972Z,5.25
2022-11-22T06:35:58.490Z,5.27
2022-11-22T06:36:59.630Z,5.25
2022-11-22T06:38:01.007Z,5.27
2022-11-22T06:38:59.782Z,5.25
2022-11-22T06:39:59.542Z,5.24
2022-11-22T06:40:58.812Z,5.24
2022-11-22T06:41:58.799Z,5.24
2022-11-22T06:43:18.021Z,5.24
2022-11-22T06:43:59.722Z,5.22
2022-11-22T06:44:59.514Z,5.22
2022-11-22T06:45:59.785Z,5.22
2022-11-22T06:46:59.581Z,5.22
2022-11-22T06:47:58.805Z,5.24
2022-11-22T06:48:59.662Z,5.24
2022-11-22T06:49:58.677Z,5.24
2022-11-22T06:50:59.736Z,5.25
2022-11-22T06:51:58.234Z,5.25
2022-11-22T06:53:45.256Z,5.25
2022-11-22T06:53:59.835Z,5.28
2022-11-22T06:54:59.639Z,5.27
2022-11-22T06:56:01.432Z,5.24
2022-11-22T06:56:59.267Z,5.22
2022-11-22T06:57:59.089Z,5.21
2022-11-22T06:58:58.797Z,5.24
2022-11-22T06:59:59.747Z,5.22
2022-11-22T07:00:59.614Z,5.21
2022-11-22T07:02:04.521Z,5.21
2022-11-22T07:03:19.186Z,5.20
2022-11-22T07:03:59.415Z,5.20
2022-11-22T07:05:23.980Z,5.20
2022-11-22T07:06:00.496Z,5.21
2022-11-22T07:06:59.313Z,5.25
2022-11-22T07:08:06.674Z,5.27
2022-11-22T07:08:59.625Z,5.28
2022-11-22T07:09:58.333Z,5.31
2022-11-22T07:10:58.338Z,5.31
2022-11-22T07:11:58.468Z,5.33
2022-11-22T07:13:18.684Z,5.36
2022-11-22T07:14:06.637Z,5.38
2022-11-22T07:15:00.220Z,5.39
2022-11-22T07:15:58.739Z,5.40
2022-11-22T07:16:58.322Z,5.42
2022-11-22T07:17:59.180Z,5.46
2022-11-22T07:18:59.479Z,5.48
2022-11-22T07:19:59.266Z,5.49
2022-11-22T07:20:59.066Z,5.51
2022-11-22T07:21:58.451Z,5.53
2022-11-22T07:23:17.744Z,5.54
2022-11-22T07:23:59.498Z,5.58
2022-11-22T07:24:59.273Z,5.58
2022-11-22T07:25:58.623Z,5.60
2022-11-22T07:26:58.940Z,5.61
2022-11-22T07:27:59.251Z,5.63
2022-11-22T07:28:58.341Z,5.64
2022-11-22T07:29:58.539Z,5.67
2022-11-22T07:30:59.178Z,5.71
2022-11-22T07:31:58.982Z,5.72
2022-11-22T07:33:17.785Z,5.74
2022-11-22T07:33:59.035Z,5.78
2022-11-22T07:34:58.334Z,5.78
2022-11-22T07:35:59.132Z,5.81
2022-11-22T07:37:01.337Z,5.82
2022-11-22T07:37:59.760Z,5.85
2022-11-22T07:38:58.552Z,5.86
2022-11-22T07:39:58.340Z,5.89
2022-11-22T07:40:59.183Z,5.89
2022-11-22T07:41:58.196Z,5.90
2022-11-22T07:43:17.792Z,5.93
2022-11-22T07:43:59.013Z,5.91
2022-11-22T07:44:58.262Z,5.94
2022-11-22T07:45:58.349Z,5.96
2022-11-22T07:46:58.738Z,5.96
2022-11-22T07:47:59.031Z,5.94
2022-11-22T07:48:58.817Z,5.97
2022-11-22T07:49:59.125Z,5.99
2022-11-22T07:50:58.908Z,5.97
2022-11-22T07:51:58.348Z,5.99
2022-11-22T07:53:17.527Z,6.01
2022-11-22T07:53:58.781Z,6.01
2022-11-22T07:54:59.056Z,6.09
2022-11-22T07:55:58.855Z,6.11
2022-11-22T07:56:58.343Z,6.15
2022-11-22T07:57:59.046Z,6.19
2022-11-22T07:58:58.828Z,6.22
2022-11-22T07:59:58.644Z,6.25
2022-11-22T08:00:58.929Z,6.27
2022-11-22T08:01:58.787Z,6.28
2022-11-22T08:03:17.931Z,6.28
2022-11-22T08:03:58.414Z,6.28
2022-11-22T08:04:58.201Z,6.31
2022-11-22T08:05:58.217Z,6.31
2022-11-22T08:06:58.859Z,6.33
2022-11-22T08:07:58.181Z,6.34
2022-11-22T08:09:01.973Z,6.36
2022-11-22T08:09:58.830Z,6.36
2022-11-22T08:10:58.615Z,6.37
2022-11-22T08:11:58.913Z,6.37
2022-11-22T08:13:17.247Z,6.38
2022-11-22T08:13:57.853Z,6.40
2022-11-22T08:14:58.853Z,6.43
2022-11-22T08:16:03.724Z,6.46
2022-11-22T08:16:59.440Z,6.46
2022-11-22T08:17:58.733Z,6.46
2022-11-22T08:18:58.019Z,6.48
2022-11-22T08:19:57.870Z,6.51
2022-11-22T08:20:58.680Z,6.52
2022-11-22T08:21:58.858Z,6.54
2022-11-22T08:23:17.307Z,6.52
2022-11-22T08:23:58.553Z,6.54
2022-11-22T08:24:57.878Z,6.52
2022-11-22T08:25:58.669Z,6.52
2022-11-22T08:26:58.449Z,6.54
2022-11-22T08:27:58.800Z,6.54
2022-11-22T08:28:58.567Z,6.55
2022-11-22T08:29:58.377Z,6.58
2022-11-22T08:30:57.920Z,6.58
2022-11-22T08:31:58.020Z,6.58
2022-11-22T08:33:17.292Z,6.64
2022-11-22T08:33:57.715Z,6.64
2022-11-22T08:34:57.821Z,6.64
2022-11-22T08:35:57.898Z,6.66
2022-11-22T08:36:57.879Z,6.66
2022-11-22T08:37:58.282Z,6.66
2022-11-22T08:38:58.551Z,6.67
2022-11-22T08:39:58.418Z,6.67
2022-11-22T08:40:58.202Z,6.69
2022-11-22T08:41:57.378Z,6.69
2022-11-22T08:43:16.816Z,6.71
2022-11-22T08:43:58.583Z,6.71
2022-11-22T08:44:58.352Z,6.76
2022-11-22T08:45:58.167Z,6.79
2022-11-22T08:46:58.453Z,6.80
2022-11-22T08:47:57.484Z,6.81
2022-11-22T08:48:57.381Z,6.84
2022-11-22T08:49:58.340Z,6.84
2022-11-22T08:50:58.141Z,6.84
2022-11-22T08:51:57.963Z,6.85
2022-11-22T08:53:16.798Z,6.87
2022-11-22T08:53:58.517Z,6.87
2022-11-22T08:54:57.377Z,6.85
2022-11-22T08:55:58.185Z,6.87
2022-11-22T08:56:58.475Z,6.88
2022-11-22T08:57:58.249Z,6.87
2022-11-22T08:58:57.303Z,6.89
2022-11-22T08:59:58.404Z,6.92
2022-11-22T09:00:57.420Z,6.92
2022-11-22T09:01:58.031Z,6.92
2022-11-22T09:03:16.816Z,6.91
2022-11-22T09:03:58.012Z,6.92
2022-11-22T09:04:58.300Z,6.95
2022-11-22T09:09:22.038Z,6.97
2022-11-22T09:09:57.787Z,6.99
2022-11-22T09:10:56.516Z,7.02
2022-11-22T09:11:56.769Z,7.02
2022-11-22T09:13:17.980Z,7.07
2022-11-22T09:13:56.793Z,7.12
2022-11-22T09:14:56.526Z,7.17
2022-11-22T09:15:56.787Z,7.17
2022-11-22T09:16:56.522Z,7.21
2022-11-22T09:17:56.777Z,7.17
2022-11-22T09:18:56.507Z,7.17
2022-11-22T09:19:56.769Z,7.20
2022-11-22T09:20:56.540Z,7.20
2022-11-22T09:21:56.802Z,7.17
2022-11-22T09:23:17.287Z,7.20
2022-11-22T09:23:56.791Z,7.20
2022-11-22T09:24:56.541Z,7.20
2022-11-22T09:25:56.296Z,7.21
2022-11-22T09:26:56.540Z,7.21
2022-11-22T09:27:56.305Z,7.24
2022-11-22T09:28:56.538Z,7.25
2022-11-22T09:29:56.307Z,7.24
2022-11-22T09:30:56.537Z,7.28
2022-11-22T09:31:56.285Z,7.31
2022-11-22T09:33:18.008Z,7.34
2022-11-22T09:33:56.309Z,7.32
2022-11-22T09:34:56.560Z,7.32
2022-11-22T09:35:56.315Z,7.32
2022-11-22T09:36:56.558Z,7.31
2022-11-22T09:37:56.300Z,7.31
2022-11-22T09:38:56.555Z,7.32
2022-11-22T09:39:56.306Z,7.31
2022-11-22T09:40:56.543Z,7.31
2022-11-22T09:41:56.304Z,7.30
2022-11-22T09:43:16.607Z,7.31
2022-11-22T09:43:56.343Z,7.30
2022-11-22T09:44:56.105Z,7.34
2022-11-22T09:45:56.333Z,7.30
2022-11-22T09:46:56.066Z,7.31
2022-11-22T09:47:56.314Z,7.31
2022-11-22T09:48:56.054Z,7.31
2022-11-22T09:49:56.313Z,7.30
2022-11-22T09:50:56.070Z,7.30
2022-11-22T09:51:56.318Z,7.30
2022-11-22T09:53:16.949Z,7.32
2022-11-22T09:53:56.357Z,7.30
2022-11-22T09:54:56.084Z,7.30
2022-11-22T09:55:56.335Z,7.28
2022-11-22T09:56:56.085Z,7.28
2022-11-22T09:57:56.342Z,7.28
2022-11-22T09:58:56.175Z,7.31
2022-11-22T09:59:56.331Z,7.30
2022-11-22T10:00:56.111Z,7.32
2022-11-22T10:01:56.326Z,7.35
2022-11-22T10:03:17.532Z,7.37
2022-11-22T10:03:56.333Z,7.40
2022-11-22T10:04:56.072Z,7.37
2022-11-22T10:05:56.326Z,7.40
2022-11-22T10:06:56.052Z,7.39
2022-11-22T10:07:56.359Z,7.39
2022-11-22T10:08:56.060Z,7.40
2022-11-22T10:09:56.300Z,7.39
2022-11-22T10:10:56.031Z,7.39
2022-11-22T10:11:56.276Z,7.40
2022-11-22T10:13:17.529Z,7.40
2022-11-22T10:13:55.833Z,7.42
2022-11-22T10:14:56.085Z,7.42
2022-11-22T10:15:55.851Z,7.43
2022-11-22T10:16:56.076Z,7.46
2022-11-22T10:17:55.839Z,7.48
2022-11-22T10:18:56.081Z,7.49
2022-11-22T10:19:56.798Z,7.53
2022-11-22T10:20:55.185Z,7.52
2022-11-22T10:21:55.208Z,7.55
2022-11-22T10:23:16.255Z,7.58
2022-11-22T10:23:56.635Z,7.61
2022-11-22T10:24:55.940Z,7.64
2022-11-22T10:25:55.686Z,7.69
2022-11-22T10:26:55.916Z,7.74
2022-11-22T10:28:00.346Z,7.82
2022-11-22T10:28:56.909Z,7.87
2022-11-22T10:29:55.675Z,7.87
2022-11-22T10:30:55.910Z,7.97
2022-11-22T10:31:55.661Z,8.05
2022-11-22T10:33:15.936Z,8.07
2022-11-22T10:33:55.725Z,8.08
2022-11-22T10:34:55.909Z,8.12
2022-11-22T10:35:55.670Z,8.16
2022-11-22T10:36:55.895Z,8.18
2022-11-22T10:37:55.660Z,8.19
2022-11-22T10:38:55.901Z,8.26
2022-11-22T10:39:55.657Z,8.25
2022-11-22T10:40:55.908Z,8.22
2022-11-22T10:41:55.673Z,8.23
2022-11-22T10:43:15.993Z,8.33
2022-11-22T10:43:57.130Z,8.36
2022-11-22T10:44:55.925Z,8.40
2022-11-22T10:45:55.684Z,8.38
2022-11-22T10:46:57.110Z,8.40
2022-11-22T10:47:55.688Z,8.40
2022-11-22T10:48:55.499Z,8.38
2022-11-22T10:49:55.686Z,8.38
2022-11-22T10:50:55.425Z,8.34
2022-11-22T10:51:55.667Z,8.30
2022-11-22T10:53:15.434Z,8.30
2022-11-22T10:54:01.933Z,8.28
2022-11-22T10:54:56.426Z,8.29
2022-11-22T10:55:55.664Z,8.29
2022-11-22T10:56:55.426Z,8.26
2022-11-22T10:57:55.653Z,8.26
2022-11-22T10:58:55.401Z,8.26
2022-11-22T10:59:55.641Z,8.25
2022-11-22T11:00:55.421Z,8.25
2022-11-22T11:01:55.624Z,8.28
2022-11-22T11:03:15.402Z,8.28
2022-11-22T11:03:55.643Z,8.29
2022-11-22T11:04:55.389Z,8.29
2022-11-22T11:07:11.612Z,8.30
2022-11-22T11:08:04.087Z,8.33
2022-11-22T11:09:54.964Z,8.36
2022-11-22T11:10:10.921Z,8.34
2022-11-22T11:10:56.437Z,8.30
2022-11-22T11:11:55.167Z,8.34
2022-11-22T11:13:15.453Z,8.34
2022-11-22T11:13:55.170Z,8.36
2022-11-22T11:14:55.421Z,8.40
2022-11-22T11:15:56.415Z,8.40
2022-11-22T11:16:55.436Z,8.40
2022-11-22T11:17:55.185Z,8.40
2022-11-22T11:18:55.438Z,8.41
2022-11-22T11:19:55.197Z,8.38
2022-11-22T11:20:55.439Z,8.40
2022-11-22T11:21:55.199Z,8.43
2022-11-22T11:23:16.260Z,8.43
2022-11-22T11:23:55.192Z,8.43
2022-11-22T11:24:55.438Z,8.47
2022-11-22T11:25:55.182Z,8.47
2022-11-22T11:26:55.438Z,8.47
2022-11-22T11:27:55.208Z,8.44
2022-11-22T11:28:55.456Z,8.43
2022-11-22T11:29:55.195Z,8.41
2022-11-22T11:30:55.453Z,8.38
2022-11-22T11:31:55.198Z,8.38
2022-11-22T11:33:15.473Z,8.37
2022-11-22T11:33:55.184Z,8.38
2022-11-22T11:34:55.043Z,8.36
2022-11-22T11:35:55.192Z,8.34
2022-11-22T11:36:54.934Z,8.34
2022-11-22T11:37:55.181Z,8.36
2022-11-22T11:38:54.929Z,8.38
2022-11-22T11:39:55.167Z,8.37
2022-11-22T11:40:54.935Z,8.36
2022-11-22T11:41:55.165Z,8.34
2022-11-22T11:43:14.940Z,8.37
2022-11-22T11:43:55.169Z,8.38
2022-11-22T11:44:54.924Z,8.41
2022-11-22T11:45:55.150Z,8.43
2022-11-22T11:46:54.918Z,8.45
2022-11-22T11:47:55.170Z,8.41
2022-11-22T11:48:55.041Z,8.43
2022-11-22T11:49:55.188Z,8.44
2022-11-22T11:50:56.409Z,8.44
2022-11-22T11:51:55.205Z,8.45
2022-11-22T11:53:14.986Z,8.45
2022-11-22T11:53:55.559Z,8.47
2022-11-22T11:54:54.993Z,8.45
2022-11-22T11:55:54.751Z,8.45
2022-11-22T11:56:56.449Z,8.48
2022-11-22T11:57:54.750Z,8.47
2022-11-22T11:58:55.019Z,8.47
2022-11-22T11:59:54.906Z,8.48
2022-11-22T12:00:55.158Z,8.50
2022-11-22T12:01:55.211Z,8.50
2022-11-22T12:03:15.174Z,8.52
2022-11-22T12:03:54.894Z,8.53
2022-11-22T12:04:54.664Z,8.52
2022-11-22T12:05:54.897Z,8.53
2022-11-22T12:06:58.744Z,8.53
2022-11-22T12:07:56.082Z,8.55
2022-11-22T12:08:54.740Z,8.52
2022-11-22T12:09:54.966Z,8.53
2022-11-22T12:10:54.730Z,8.55
2022-11-22T12:11:55.276Z,8.56
2022-11-22T12:13:14.752Z,8.58
2022-11-22T12:14:19.098Z,8.58
2022-11-22T12:15:10.716Z,8.61
2022-11-22T12:15:55.975Z,8.62
2022-11-22T12:16:54.717Z,8.62
2022-11-22T12:17:54.950Z,8.63
2022-11-22T12:18:54.717Z,8.63
2022-11-22T12:19:54.951Z,8.65
2022-11-22T12:20:54.724Z,8.65
2022-11-22T12:21:54.475Z,8.68
2022-11-22T12:23:14.735Z,8.66
2022-11-22T12:24:13.280Z,8.66
2022-11-22T12:25:16.927Z,8.65
2022-11-22T12:25:55.487Z,8.68
2022-11-22T12:26:54.733Z,8.70
2022-11-22T12:27:54.488Z,8.70
2022-11-22T12:28:54.776Z,8.71
2022-11-22T12:29:54.493Z,8.71
2022-11-22T12:30:54.756Z,8.73
2022-11-22T12:31:54.516Z,8.73
2022-11-22T12:33:14.764Z,8.71
2022-11-22T12:33:54.676Z,8.70
2022-11-22T12:34:54.753Z,8.70
2022-11-22T12:35:54.490Z,8.68
2022-11-22T12:36:54.779Z,8.70
2022-11-22T12:37:54.527Z,8.70
2022-11-22T12:38:54.386Z,8.71
2022-11-22T12:39:54.622Z,8.71
2022-11-22T12:40:54.268Z,8.73
2022-11-22T12:41:54.934Z,8.73
2022-11-22T12:43:14.279Z,8.73
2022-11-22T12:43:54.518Z,8.74
2022-11-22T12:44:54.287Z,8.73
2022-11-22T12:45:54.689Z,8.71
2022-11-22T12:46:54.286Z,8.73
2022-11-22T12:47:54.831Z,8.71
2022-11-22T12:48:54.281Z,8.71
2022-11-22T12:49:54.537Z,8.71
2022-11-22T12:50:54.274Z,8.68
2022-11-22T12:51:54.528Z,8.66
2022-11-22T12:53:15.042Z,8.65
2022-11-22T12:53:54.528Z,8.65
2022-11-22T12:54:54.262Z,8.63
2022-11-22T12:55:54.512Z,8.62
2022-11-22T12:56:54.260Z,8.65
2022-11-22T12:57:54.525Z,8.63
2022-11-22T12:58:54.248Z,8.65
2022-11-22T12:59:54.509Z,8.66
2022-11-22T13:00:54.284Z,8.68
2022-11-22T13:01:54.595Z,8.68
2022-11-22T13:03:14.281Z,8.68
2022-11-22T13:03:54.030Z,8.68
2022-11-22T13:04:54.289Z,8.71
2022-11-22T13:05:54.051Z,8.71
2022-11-22T13:06:55.775Z,8.74
2022-11-22T13:07:54.142Z,8.76
2022-11-22T13:09:00.333Z,8.80
2022-11-22T13:09:55.075Z,8.84
2022-11-22T13:10:54.342Z,8.84
2022-11-22T13:11:54.093Z,8.86
2022-11-22T13:13:14.366Z,8.91
2022-11-22T13:13:54.118Z,8.92
2022-11-22T13:14:54.369Z,8.92
2022-11-22T13:15:54.089Z,8.92
2022-11-22T13:16:53.883Z,8.91
2022-11-22T13:17:54.125Z,8.91
2022-11-22T13:18:54.247Z,8.91
2022-11-22T13:19:54.140Z,8.92
2022-11-22T13:20:53.914Z,8.95
2022-11-22T13:21:54.164Z,8.91